createdAt,value
2022-08-03T00:01:35.763Z,101434.34
2022-08-03T00:04:03.616Z,101431.84
2022-08-03T00:06:36.465Z,101425.34
2022-08-03T00:09:06.373Z,101427.34
2022-08-03T00:11:34.161Z,101433.84
2022-08-03T00:14:03.539Z,101435.84
2022-08-03T00:16:31.287Z,101435.03
2022-08-03T00:19:00.824Z,101423.69
2022-08-03T00:21:29.712Z,101430.19
2022-08-03T00:23:57.614Z,101417.19
2022-08-03T00:26:25.405Z,101421.69
2022-08-03T00:28:53.159Z,101416.03
2022-08-03T00:31:38.047Z,101416.84
2022-08-03T00:34:10.284Z,101421.22
2022-08-03T00:36:40.439Z,101418.38
2022-08-03T00:39:08.190Z,101420.88
2022-08-03T00:41:35.991Z,101422.03
2022-08-03T00:44:03.901Z,101428.53
2022-08-03T00:46:33.456Z,101417.69
2022-08-03T00:49:01.415Z,101415.19
2022-08-03T00:51:29.282Z,101408.69
2022-08-03T00:53:56.989Z,101408.69
2022-08-03T00:56:24.807Z,101402.22
2022-08-03T00:58:54.475Z,101404.22
2022-08-03T01:01:22.336Z,101410.72
2022-08-03T01:03:51.480Z,101406.22
2022-08-03T01:06:20.996Z,101411.06
2022-08-03T01:08:55.553Z,101404.22
2022-08-03T01:11:30.593Z,101402.56
2022-08-03T01:14:19.053Z,101398.91
2022-08-03T01:16:56.203Z,101394.41
2022-08-03T01:19:37.776Z,101396.06
2022-08-03T01:22:18.990Z,101391.56
2022-08-03T01:24:54.368Z,101391.91
2022-08-03T01:27:27.071Z,101389.09
2022-08-03T01:30:03.944Z,101384.59
2022-08-03T01:32:58.488Z,101387.91
2022-08-03T01:35:38.971Z,101384.94
2022-08-03T01:38:14.565Z,101384.59
2022-08-03T01:40:45.426Z,101382.13
2022-08-03T01:44:27.509Z,101378.44
2022-08-03T01:46:07.845Z,101380.69
2022-08-03T01:48:38.926Z,101376.56
2022-08-03T01:51:07.795Z,101375.03
2022-08-03T01:53:37.971Z,101378.34
2022-08-03T01:56:07.550Z,101367.84
2022-08-03T01:58:37.354Z,101370.19
2022-08-03T02:01:07.119Z,101371.03
2022-08-03T02:03:59.607Z,101370.69
2022-08-03T02:07:00.842Z,101368.88
2022-08-03T02:09:18.962Z,101379.38
2022-08-03T02:11:48.545Z,101373.72
2022-08-03T02:14:18.471Z,101368.06
2022-08-03T02:16:50.152Z,101372.56
2022-08-03T02:19:19.298Z,101372.91
2022-08-03T02:21:57.217Z,101368.41
2022-08-03T02:24:29.257Z,101365.91
2022-08-03T02:26:57.916Z,101365.09
2022-08-03T02:29:39.368Z,101369.09
2022-08-03T02:32:11.535Z,101363.78
2022-08-03T02:34:43.076Z,101365.44
2022-08-03T02:37:13.714Z,101360.47
2022-08-03T02:39:42.119Z,101358.47
2022-08-03T02:42:12.241Z,101365.78
2022-08-03T02:44:47.685Z,101363.78
2022-08-03T02:47:21.323Z,101362.13
2022-08-03T02:49:52.195Z,101359.28
2022-08-03T02:52:23.257Z,101358.47
2022-08-03T02:54:55.955Z,101353.97
2022-08-03T02:57:25.903Z,101350.31
2022-08-03T02:59:56.300Z,101348.66
2022-08-03T03:02:26.550Z,101345.81
2022-08-03T03:05:52.491Z,101355.50
2022-08-03T03:07:51.392Z,101344.91
2022-08-03T03:10:21.695Z,101342.91
2022-08-03T03:12:51.229Z,101340.06
2022-08-03T03:15:19.346Z,101345.72
2022-08-03T03:17:50.375Z,101344.91
2022-08-03T03:20:29.439Z,101348.91
2022-08-03T03:23:00.976Z,101342.41
2022-08-03T03:25:29.805Z,101351.72
2022-08-03T03:27:58.005Z,101346.41
2022-08-03T03:30:26.505Z,101346.41
2022-08-03T03:32:56.173Z,101350.91
2022-08-03T03:35:23.955Z,101348.41
2022-08-03T03:37:52.919Z,101360.91
2022-08-03T03:40:22.374Z,101352.44
2022-08-03T03:42:50.799Z,101352.44
2022-08-03T03:45:19.750Z,101348.75
2022-08-03T03:47:48.111Z,101359.25
2022-08-03T03:50:19.440Z,101355.59
2022-08-03T03:52:47.439Z,101359.91
2022-08-03T03:55:17.813Z,101365.56
2022-08-03T03:57:45.812Z,101365.56
2022-08-03T04:00:15.489Z,101361.91
2022-08-03T04:02:43.570Z,101365.94
2022-08-03T04:05:28.964Z,101368.75
2022-08-03T04:08:18.280Z,101371.94
2022-08-03T04:11:01.676Z,101377.09
2022-08-03T04:13:34.626Z,101377.78
2022-08-03T04:16:04.280Z,101370.97
2022-08-03T04:18:34.981Z,101379.44
2022-08-03T04:21:04.779Z,101374.63
2022-08-03T04:23:36.718Z,101377.44
2022-08-03T04:26:09.618Z,101375.09
2022-08-03T04:28:40.628Z,101371.09
2022-08-03T04:31:09.114Z,101378.41
2022-08-03T04:33:39.503Z,101370.75
2022-08-03T04:36:10.703Z,101374.06
2022-08-03T04:38:45.451Z,101376.06
2022-08-03T04:41:14.166Z,101373.25
2022-08-03T04:43:42.224Z,101384.22
2022-08-03T04:46:11.285Z,101374.59
2022-08-03T04:48:42.356Z,101377.91
2022-08-03T04:51:12.976Z,101384.88
2022-08-03T04:53:42.200Z,101389.47
2022-08-03T04:56:10.232Z,101391.28
2022-08-03T04:58:38.047Z,101384.44
2022-08-03T05:01:05.980Z,101393.91
2022-08-03T05:03:33.728Z,101389.88
2022-08-03T05:06:09.921Z,101387.19
2022-08-03T05:08:41.197Z,101389.34
2022-08-03T05:11:16.225Z,101383.31
2022-08-03T05:13:43.989Z,101380.59
2022-08-03T05:16:12.303Z,101389.56
2022-08-03T05:18:40.087Z,101386.38
2022-08-03T05:21:07.904Z,101388.03
2022-08-03T05:23:35.687Z,101397.84
2022-08-03T05:26:03.443Z,101394.31
2022-08-03T05:28:32.582Z,101398.81
2022-08-03T05:31:00.323Z,101389.63
2022-08-03T05:33:28.108Z,101395.78
2022-08-03T05:36:01.149Z,101404.72
2022-08-03T05:38:34.603Z,101407.56
2022-08-03T05:41:21.125Z,101400.72
2022-08-03T05:43:53.758Z,101400.50
2022-08-03T05:46:22.228Z,101414.78
2022-08-03T05:48:50.381Z,101404.41
2022-08-03T05:51:18.556Z,101407.84
2022-08-03T05:53:46.626Z,101403.13
2022-08-03T05:56:16.185Z,101398.41
2022-08-03T05:58:46.001Z,101401.03
2022-08-03T06:01:15.298Z,101403.69
2022-08-03T06:03:43.200Z,101396.94
2022-08-03T06:06:11.626Z,101400.59
2022-08-03T06:08:40.187Z,101396.56
2022-08-03T06:11:07.972Z,101383.69
2022-08-03T06:13:35.794Z,101388.31
2022-08-03T06:16:03.748Z,101389.63
2022-08-03T06:18:32.963Z,101391.03
2022-08-03T06:21:14.594Z,101403.31
2022-08-03T06:23:54.533Z,101400.25
2022-08-03T06:26:28.663Z,101410.06
2022-08-03T06:28:56.578Z,101412.66
2022-08-03T06:31:32.227Z,101414.19
2022-08-03T06:34:32.195Z,101411.38
2022-08-03T06:36:51.193Z,101413.34
2022-08-03T06:39:20.530Z,101405.66
2022-08-03T06:41:51.024Z,101410.44
2022-08-03T06:44:18.896Z,101409.53
2022-08-03T06:46:47.719Z,101409.88
2022-08-03T06:49:16.947Z,101411.50
2022-08-03T06:52:03.899Z,101405.34
2022-08-03T06:54:33.253Z,101408.88
2022-08-03T06:57:01.475Z,101404.09
2022-08-03T07:00:08.022Z,101406.22
2022-08-03T07:02:19.254Z,101417.41
2022-08-03T07:04:48.774Z,101414.47
2022-08-03T07:07:17.380Z,101421.13
2022-08-03T07:09:56.941Z,101417.31
2022-08-03T07:12:27.504Z,101425.31
2022-08-03T07:15:00.411Z,101432.91
2022-08-03T07:17:30.486Z,101432.44
2022-08-03T07:20:00.543Z,101429.41
2022-08-03T07:22:28.604Z,101433.28
2022-08-03T07:24:57.656Z,101437.31
2022-08-03T07:27:26.857Z,101435.44
2022-08-03T07:29:54.811Z,101443.97
2022-08-03T07:32:22.736Z,101443.03
2022-08-03T07:34:50.477Z,101450.31
2022-08-03T07:37:19.658Z,101449.84
2022-08-03T07:39:47.483Z,101457.81
2022-08-03T07:42:15.426Z,101462.19
2022-08-03T07:44:43.339Z,101466.94
2022-08-03T07:47:11.072Z,101469.81
2022-08-03T07:49:50.357Z,101467.94
2022-08-03T07:52:37.278Z,101467.41
2022-08-03T07:55:06.355Z,101458.28
2022-08-03T07:57:34.830Z,101469.66
2022-08-03T08:00:03.194Z,101465.06
2022-08-03T08:02:39.790Z,101478.66
2022-08-03T08:05:08.283Z,101478.81
2022-08-03T08:07:37.786Z,101478.28
2022-08-03T08:10:06.798Z,101477.91
2022-08-03T08:12:34.623Z,101477.28
2022-08-03T08:15:02.585Z,101481.00
2022-08-03T08:17:30.460Z,101472.78
2022-08-03T08:19:58.256Z,101474.84
2022-08-03T08:22:30.372Z,101482.13
2022-08-03T08:25:01.508Z,101487.81
2022-08-03T08:28:31.709Z,101475.31
2022-08-03T08:30:19.451Z,101475.53
2022-08-03T08:32:47.724Z,101469.28
2022-08-03T08:35:15.585Z,101475.06
2022-08-03T08:37:44.105Z,101478.16
2022-08-03T08:40:22.051Z,101481.00
2022-08-03T08:42:58.942Z,101487.00
2022-08-03T08:45:27.469Z,101489.03
2022-08-03T08:48:00.846Z,101485.38
2022-08-03T08:50:31.183Z,101491.75
2022-08-03T08:53:03.073Z,101488.78
2022-08-03T08:55:59.470Z,101498.72
2022-08-03T08:58:23.384Z,101498.72
2022-08-03T09:00:51.836Z,101503.22
2022-08-03T09:03:29.169Z,101497.78
2022-08-03T09:05:59.879Z,101502.50
2022-08-03T09:08:27.740Z,101511.50
2022-08-03T09:10:56.932Z,101516.34
2022-08-03T09:13:25.112Z,101513.72
2022-08-03T09:16:10.971Z,101514.09
2022-08-03T09:18:39.681Z,101511.38
2022-08-03T09:21:37.540Z,101507.72
2022-08-03T09:24:13.139Z,101514.31
2022-08-03T09:26:53.774Z,101519.41
2022-08-03T09:29:22.669Z,101514.56
2022-08-03T09:31:50.449Z,101515.97
2022-08-03T09:34:19.513Z,101520.25
2022-08-03T09:36:48.475Z,101525.22
2022-08-03T09:39:17.867Z,101516.91
2022-08-03T09:41:47.235Z,101513.50
2022-08-03T09:44:25.035Z,101523.22
2022-08-03T09:46:55.007Z,101504.16
2022-08-03T09:49:23.628Z,101522.59
2022-08-03T09:52:33.543Z,101518.13
2022-08-03T09:54:41.155Z,101512.69
2022-08-03T09:57:09.017Z,101512.69
2022-08-03T09:59:41.118Z,101512.81
2022-08-03T10:02:22.062Z,101531.28
2022-08-03T10:04:52.453Z,101523.59
2022-08-03T10:07:21.774Z,101518.72
2022-08-03T10:09:57.542Z,101520.28
2022-08-03T10:12:26.064Z,101522.88
2022-08-03T10:14:56.616Z,101527.13
2022-08-03T10:17:24.539Z,101528.06
2022-08-03T10:19:52.319Z,101534.56
2022-08-03T10:22:22.872Z,101536.91
2022-08-03T10:24:56.196Z,101529.94
2022-08-03T10:27:25.420Z,101533.03
2022-08-03T10:29:55.066Z,101537.31
2022-08-03T10:32:31.623Z,101532.09
2022-08-03T10:35:19.152Z,101524.41
2022-08-03T10:37:57.223Z,101531.13
2022-08-03T10:43:21.684Z,101524.00
2022-08-03T10:45:50.726Z,101519.97
2022-08-03T10:48:21.061Z,101529.56
2022-08-03T10:50:50.496Z,101528.84
2022-08-03T10:53:35.566Z,101528.25
2022-08-03T10:56:47.275Z,101531.81
2022-08-03T10:59:09.842Z,101537.22
2022-08-03T11:02:00.242Z,101532.28
2022-08-03T11:04:30.925Z,101534.28
2022-08-03T11:07:22.706Z,101545.03
2022-08-03T11:09:51.226Z,101527.78
2022-08-03T11:12:30.924Z,101534.75
2022-08-03T11:15:02.081Z,101548.56
2022-08-03T11:17:30.039Z,101539.63
2022-08-03T11:19:59.271Z,101537.00
2022-08-03T11:22:47.367Z,101537.59
2022-08-03T11:25:53.915Z,101531.94
2022-08-03T11:28:27.047Z,101533.47
2022-08-03T11:30:54.970Z,101532.28
2022-08-03T11:33:32.572Z,101546.59
2022-08-03T11:36:03.050Z,101535.59
2022-08-03T11:38:30.807Z,101533.47
2022-08-03T11:40:58.593Z,101539.63
2022-08-03T11:43:46.321Z,101549.31
2022-08-03T11:46:28.618Z,101537.97
2022-08-03T11:49:10.230Z,101538.44
2022-08-03T11:51:41.011Z,101546.84
2022-08-03T11:54:08.968Z,101542.81
2022-08-03T11:56:46.656Z,101550.03
2022-08-03T11:59:20.452Z,101545.72
2022-08-03T12:01:49.736Z,101547.41
2022-08-03T12:04:17.591Z,101540.88
2022-08-03T12:07:00.886Z,101530.00
2022-08-03T12:09:28.632Z,101540.06
2022-08-03T12:12:00.646Z,101538.19
2022-08-03T12:14:49.373Z,101540.91
2022-08-03T12:17:18.417Z,101530.97
2022-08-03T12:19:46.491Z,101525.41
2022-08-03T12:22:16.780Z,101527.31
2022-08-03T12:24:47.169Z,101535.94
2022-08-03T12:27:24.976Z,101528.44
2022-08-03T12:29:58.723Z,101530.69
2022-08-03T12:32:27.845Z,101527.25
2022-08-03T12:35:00.083Z,101531.34
2022-08-03T12:37:30.015Z,101526.41
2022-08-03T12:40:03.081Z,101522.38
2022-08-03T12:42:35.939Z,101518.72
2022-08-03T12:45:25.620Z,101513.03
2022-08-03T12:47:56.138Z,101528.41
2022-08-03T12:50:29.100Z,101521.38
2022-08-03T12:52:59.863Z,101523.94
2022-08-03T12:55:40.073Z,101519.78
2022-08-03T12:58:33.648Z,101530.44
2022-08-03T13:01:05.263Z,101513.03
2022-08-03T13:03:43.353Z,101526.59
2022-08-03T13:06:14.621Z,101520.06
2022-08-03T13:08:45.597Z,101524.88
2022-08-03T13:11:21.450Z,101543.31
2022-08-03T13:13:49.597Z,101533.09
2022-08-03T13:16:19.339Z,101537.34
2022-08-03T13:18:48.104Z,101534.16
2022-08-03T13:21:17.306Z,101544.66
2022-08-03T13:23:46.709Z,101538.03
2022-08-03T13:26:14.623Z,101545.88
2022-08-03T13:28:42.798Z,101546.59
2022-08-03T13:31:10.746Z,101546.22
2022-08-03T13:33:39.682Z,101546.81
2022-08-03T13:36:08.144Z,101545.88
2022-08-03T13:38:35.969Z,101540.81
2022-08-03T13:41:05.294Z,101543.50
2022-08-03T13:43:33.050Z,101541.59
2022-08-03T13:46:00.785Z,101537.56
2022-08-03T13:48:36.219Z,101544.19
2022-08-03T13:51:21.839Z,101537.28
2022-08-03T13:53:52.245Z,101544.66
2022-08-03T13:56:21.431Z,101542.63
2022-08-03T13:58:49.175Z,101534.56
2022-08-03T14:01:17.426Z,101541.03
2022-08-03T14:03:46.987Z,101539.25
2022-08-03T14:06:14.727Z,101529.63
2022-08-03T14:08:42.608Z,101526.16
2022-08-03T14:11:10.340Z,101528.56
2022-08-03T14:13:39.589Z,101536.81
2022-08-03T14:16:09.993Z,101533.06
2022-08-03T14:18:38.035Z,101534.97
2022-08-03T14:21:09.281Z,101529.28
2022-08-03T14:23:38.580Z,101535.06
2022-08-03T14:26:08.410Z,101540.59
2022-08-03T14:28:36.731Z,101531.69
2022-08-03T14:31:08.537Z,101532.63
2022-08-03T14:33:53.696Z,101531.13
2022-08-03T14:36:21.521Z,101527.81
2022-08-03T14:38:49.505Z,101530.66
2022-08-03T14:41:20.091Z,101520.84
2022-08-03T14:44:00.627Z,101518.38
2022-08-03T14:46:32.035Z,101513.13
2022-08-03T14:50:27.939Z,101512.91
2022-08-03T14:51:53.508Z,101521.44
2022-08-03T14:54:22.201Z,101527.66
2022-08-03T14:56:49.937Z,101537.03
2022-08-03T14:59:17.691Z,101531.97
2022-08-03T15:02:04.419Z,101525.81
2022-08-03T15:04:34.326Z,101524.06
2022-08-03T15:07:02.076Z,101514.53
2022-08-03T15:09:29.867Z,101520.50
2022-08-03T15:11:57.789Z,101521.81
2022-08-03T15:14:32.330Z,101511.16
2022-08-03T15:17:02.602Z,101510.31
2022-08-03T15:20:00.466Z,101514.63
2022-08-03T15:22:20.457Z,101502.69
2022-08-03T15:24:48.837Z,101512.59
2022-08-03T15:27:16.679Z,101515.00
2022-08-03T15:30:06.671Z,101506.72
2022-08-03T15:32:34.014Z,101499.63
2022-08-03T15:35:01.875Z,101504.22
2022-08-03T15:37:29.634Z,101495.44
2022-08-03T15:39:58.869Z,101496.34
2022-08-03T15:42:29.488Z,101492.97
2022-08-03T15:44:57.371Z,101496.25
2022-08-03T15:47:25.462Z,101492.84
2022-08-03T15:49:54.584Z,101490.13
2022-08-03T15:52:22.409Z,101483.78
2022-08-03T15:54:50.292Z,101492.50
2022-08-03T15:57:18.187Z,101481.22
2022-08-03T15:59:46.184Z,101479.72
2022-08-03T16:02:14.033Z,101481.09
2022-08-03T16:04:41.820Z,101485.78
2022-08-03T16:07:17.587Z,101474.56
2022-08-03T16:09:45.364Z,101476.28
2022-08-03T16:12:16.114Z,101478.03
2022-08-03T16:14:52.259Z,101482.25
2022-08-03T16:17:21.558Z,101478.34
2022-08-03T16:19:49.824Z,101475.72
2022-08-03T16:22:19.509Z,101479.84
2022-08-03T16:24:47.683Z,101468.00
2022-08-03T16:27:37.522Z,101476.44
2022-08-03T16:30:03.276Z,101474.13
2022-08-03T16:32:31.271Z,101470.03
2022-08-03T16:34:59.047Z,101469.50
2022-08-03T16:37:56.286Z,101464.72
2022-08-03T16:40:17.650Z,101461.56
2022-08-03T16:42:47.723Z,101455.66
2022-08-03T16:45:15.708Z,101459.34
2022-08-03T16:47:43.502Z,101449.59
2022-08-03T16:50:19.029Z,101453.47
2022-08-03T16:52:48.890Z,101448.81
2022-08-03T16:55:42.966Z,101447.16
2022-08-03T16:58:06.461Z,101441.53
2022-08-03T17:00:41.325Z,101443.28
2022-08-03T17:03:19.041Z,101442.56
2022-08-03T17:05:49.938Z,101450.75
2022-08-03T17:08:27.066Z,101427.03
2022-08-03T17:10:55.822Z,101430.97
2022-08-03T17:13:38.864Z,101432.16
2022-08-03T17:16:11.898Z,101438.22
2022-08-03T17:18:47.546Z,101418.75
2022-08-03T17:21:17.074Z,101430.13
2022-08-03T17:23:55.800Z,101431.34
2022-08-03T17:26:30.411Z,101428.78
2022-08-03T17:29:11.445Z,101422.50
2022-08-03T17:31:48.600Z,101423.50
2022-08-03T17:34:17.746Z,101420.56
2022-08-03T17:37:03.668Z,101422.50
2022-08-03T17:39:58.765Z,101418.22
2022-08-03T17:42:30.442Z,101409.22
2022-08-03T17:45:02.050Z,101416.13
2022-08-03T17:47:41.987Z,101420.91
2022-08-03T17:50:25.026Z,101417.97
2022-08-03T17:53:01.064Z,101419.56
2022-08-03T17:55:56.823Z,101410.56
2022-08-03T17:58:43.744Z,101411.81
2022-08-03T18:02:03.199Z,101414.66
2022-08-03T18:04:29.837Z,101415.06
2022-08-03T18:07:00.375Z,101415.06
2022-08-03T18:10:06.428Z,101416.25
2022-08-03T18:12:32.034Z,101403.97
2022-08-03T18:15:07.771Z,101407.09
2022-08-03T18:17:55.604Z,101416.28
2022-08-03T18:20:32.112Z,101412.81
2022-08-03T18:23:04.895Z,101413.91
2022-08-03T18:25:43.033Z,101413.72
2022-08-03T18:28:23.143Z,101413.09
2022-08-03T18:30:54.470Z,101410.50
2022-08-03T18:34:19.400Z,101409.44
2022-08-03T18:36:17.676Z,101407.59
2022-08-03T18:38:53.829Z,101405.09
2022-08-03T18:41:32.460Z,101406.28
2022-08-03T18:44:08.282Z,101401.69
2022-08-03T18:46:51.480Z,101406.13
2022-08-03T18:49:38.424Z,101412.06
2022-08-03T18:52:16.560Z,101408.66
2022-08-03T18:55:03.877Z,101405.25
2022-08-03T18:57:46.427Z,101400.22
2022-08-03T19:00:24.398Z,101403.78
2022-08-03T19:03:05.770Z,101396.72
2022-08-03T19:05:53.030Z,101403.84
2022-08-03T19:08:34.651Z,101409.78
2022-08-03T19:11:06.203Z,101401.16
2022-08-03T19:13:50.277Z,101399.38
2022-08-03T19:16:38.838Z,101398.38
2022-08-03T19:19:10.708Z,101393.31
2022-08-03T19:21:42.382Z,101401.25
2022-08-03T19:24:10.558Z,101401.97
2022-08-03T19:26:41.213Z,101405.53
2022-08-03T19:29:14.922Z,101409.13
2022-08-03T19:31:57.954Z,101413.88
2022-08-03T19:34:28.866Z,101412.81
2022-08-03T19:36:57.697Z,101411.88
2022-08-03T19:39:25.666Z,101420.66
2022-08-03T19:41:59.294Z,101408.72
2022-08-03T19:44:38.881Z,101406.47
2022-08-03T19:47:16.836Z,101403.88
2022-08-03T19:50:06.045Z,101409.78
2022-08-03T19:52:38.714Z,101404.72
2022-08-03T19:55:12.042Z,101411.38
2022-08-03T19:57:44.004Z,101403.09
2022-08-03T20:00:29.329Z,101407.22
2022-08-03T20:03:03.467Z,101404.63
2022-08-03T20:05:44.970Z,101402.50
2022-08-03T20:08:20.661Z,101398.69
2022-08-03T20:10:51.395Z,101398.22
2022-08-03T20:13:23.859Z,101397.31
2022-08-03T20:15:58.720Z,101396.84
2022-08-03T20:18:27.813Z,101383.72
2022-08-03T20:21:00.160Z,101389.75
2022-08-03T20:23:37.401Z,101392.44
2022-08-03T20:26:05.491Z,101393.97
2022-08-03T20:28:50.180Z,101394.34
2022-08-03T20:31:25.150Z,101391.41
2022-08-03T20:34:04.620Z,101385.25
2022-08-03T20:36:32.157Z,101380.88
2022-08-03T20:39:00.263Z,101392.09
2022-08-03T20:41:28.248Z,101384.41
2022-08-03T20:44:00.889Z,101384.75
2022-08-03T20:46:40.656Z,101380.63
2022-08-03T20:49:21.208Z,101393.84
2022-08-03T20:51:53.059Z,101390.88
2022-08-03T20:54:30.971Z,101391.56
2022-08-03T20:57:00.399Z,101384.94
2022-08-03T20:59:38.457Z,101382.81
2022-08-03T21:02:19.818Z,101375.38
2022-08-03T21:05:03.604Z,101373.72
2022-08-03T21:07:45.527Z,101371.25
2022-08-03T21:10:30.668Z,101367.09
2022-08-03T21:13:15.268Z,101364.28
2022-08-03T21:16:12.731Z,101362.97
2022-08-03T21:18:43.162Z,101362.34
2022-08-03T21:21:15.667Z,101367.69
2022-08-03T21:23:48.847Z,101356.69
2022-08-03T21:26:18.722Z,101359.38
2022-08-03T21:28:47.668Z,101365.41
2022-08-03T21:31:24.860Z,101357.28
2022-08-03T21:33:55.533Z,101362.81
2022-08-03T21:36:25.406Z,101361.50
2022-08-03T21:38:56.108Z,101362.22
2022-08-03T21:41:24.997Z,101350.41
2022-08-03T21:43:52.742Z,101348.25
2022-08-03T21:46:21.249Z,101344.94
2022-08-03T21:48:56.241Z,101339.63
2022-08-03T21:51:26.946Z,101344.38
2022-08-03T21:54:02.727Z,101347.91
2022-08-03T21:56:37.516Z,101347.75
2022-08-03T21:59:08.598Z,101348.31
2022-08-03T22:01:40.650Z,101350.66
2022-08-03T22:04:11.929Z,101340.06
2022-08-03T22:07:00.545Z,101339.09
2022-08-03T22:09:29.289Z,101341.44
2022-08-03T22:11:57.086Z,101340.63
2022-08-03T22:14:24.908Z,101345.44
2022-08-03T22:16:52.697Z,101350.59
2022-08-03T22:19:20.431Z,101341.97
2022-08-03T22:21:49.565Z,101343.00
2022-08-03T22:24:23.797Z,101349.38
2022-08-03T22:27:18.923Z,101342.41
2022-08-03T22:29:46.904Z,101339.78
2022-08-03T22:32:14.674Z,101342.97
2022-08-03T22:34:43.821Z,101338.81
2022-08-03T22:37:12.292Z,101341.16
2022-08-03T22:39:43.739Z,101341.84
2022-08-03T22:42:12.427Z,101344.09
2022-08-03T22:44:41.286Z,101338.75
2022-08-03T22:47:10.498Z,101341.94
2022-08-03T22:49:39.106Z,101345.78
2022-08-03T22:52:08.439Z,101336.00
2022-08-03T22:54:36.528Z,101340.34
2022-08-03T22:57:06.105Z,101341.50
2022-08-03T22:59:39.069Z,101344.56
2022-08-03T23:02:20.307Z,101344.06
2022-08-03T23:04:52.163Z,101342.28
2022-08-03T23:07:28.345Z,101335.31
2022-08-03T23:09:57.449Z,101334.81
2022-08-03T23:12:29.502Z,101336.66
2022-08-03T23:15:01.475Z,101341.38
2022-08-03T23:17:32.363Z,101334.88
2022-08-03T23:20:04.690Z,101336.88
2022-08-03T23:22:35.194Z,101340.53
2022-08-03T23:25:04.859Z,101338.53
2022-08-03T23:27:34.491Z,101342.31
2022-08-03T23:30:03.393Z,101341.16
2022-08-03T23:32:31.943Z,101340.31
2022-08-03T23:35:19.248Z,101338.31
2022-08-03T23:38:04.618Z,101340.22
2022-08-03T23:40:38.143Z,101338.06
2022-08-03T23:43:07.497Z,101343.22
2022-08-03T23:45:42.112Z,101343.56
2022-08-03T23:48:09.826Z,101338.94
2022-08-03T23:50:45.501Z,101329.28
2022-08-03T23:53:18.466Z,101337.75
2022-08-03T23:56:02.578Z,101337.41
2022-08-03T23:59:00.042Z,101326.94
